createdAt,value
2017-05-26T00:00:08.263Z,80.3
2017-05-26T00:00:48.828Z,80.21
2017-05-26T00:01:29.516Z,80.79
2017-05-26T00:02:10.198Z,80.5
2017-05-26T00:02:50.787Z,80.21
2017-05-26T00:03:31.440Z,80.59
2017-05-26T00:04:12.093Z,80.69
2017-05-26T00:04:52.793Z,80.5
2017-05-26T00:05:33.415Z,80.5
2017-05-26T00:06:14.060Z,80.59
2017-05-26T00:06:54.750Z,80.69
2017-05-26T00:07:35.440Z,80.59
2017-05-26T00:08:16.026Z,80.5
2017-05-26T00:08:56.666Z,80.59
2017-05-26T00:09:37.318Z,80.4
2017-05-26T00:10:17.980Z,80.59
2017-05-26T00:10:58.645Z,80.4
2017-05-26T00:11:39.286Z,80.69
2017-05-26T00:12:19.877Z,80.5
2017-05-26T00:13:00.593Z,81.16
2017-05-26T00:13:41.555Z,80.79
2017-05-26T00:14:22.250Z,81.16
2017-05-26T00:15:02.903Z,81.07
2017-05-26T00:15:43.497Z,80.88
2017-05-26T00:16:24.013Z,80.88
2017-05-26T00:17:04.634Z,80.88
2017-05-26T00:17:45.304Z,80.69
2017-05-26T00:18:25.906Z,80.5
2017-05-26T00:19:06.427Z,80.69
2017-05-26T00:19:47.061Z,80.84
2017-05-26T00:20:27.725Z,81.26
2017-05-26T00:21:08.410Z,81.07
2017-05-26T00:21:48.948Z,81.41
2017-05-26T00:22:29.550Z,81.45
2017-05-26T00:23:10.219Z,81.41
2017-05-26T00:23:50.822Z,80.74
2017-05-26T00:24:31.366Z,81.32
2017-05-26T00:25:12.050Z,81.16
2017-05-26T00:25:52.631Z,80.93
2017-05-26T00:26:33.215Z,80.84
2017-05-26T00:27:13.877Z,81.22
2017-05-26T00:27:54.521Z,81.22
2017-05-26T00:28:35.204Z,81.07
2017-05-26T00:29:15.826Z,81.13
2017-05-26T00:29:56.494Z,80.93
2017-05-26T00:30:37.145Z,80.93
2017-05-26T00:31:17.785Z,81.13
2017-05-26T00:31:58.306Z,81.51
2017-05-26T00:32:38.966Z,81.22
2017-05-26T00:33:19.611Z,81.03
2017-05-26T00:34:00.239Z,81.13
2017-05-26T00:34:40.882Z,81.13
2017-05-26T00:35:21.555Z,81.32
2017-05-26T00:36:02.214Z,81.51
2017-05-26T00:36:42.853Z,81.32
2017-05-26T00:37:23.509Z,81.41
2017-05-26T00:38:04.165Z,81.41
2017-05-26T00:38:44.821Z,81.79
2017-05-26T00:39:25.469Z,81.51
2017-05-26T00:40:06.125Z,81.79
2017-05-26T00:40:46.778Z,81.89
2017-05-26T00:41:27.409Z,81.7
2017-05-26T00:42:08.084Z,81.7
2017-05-26T00:42:48.719Z,81.7
2017-05-26T00:43:29.391Z,81.7
2017-05-26T00:44:10.031Z,81.79
2017-05-26T00:44:50.690Z,81.41
2017-05-26T00:45:31.332Z,81.7
2017-05-26T00:46:12.023Z,81.6
2017-05-26T00:46:52.635Z,81.6
2017-05-26T00:47:33.265Z,81.41
2017-05-26T00:48:13.952Z,81.51
2017-05-26T00:48:54.620Z,81.51
2017-05-26T00:49:35.252Z,81.6
2017-05-26T00:50:15.824Z,81.79
2017-05-26T00:50:56.436Z,81.89
2017-05-26T00:51:37.115Z,81.6
2017-05-26T00:52:17.775Z,81.7
2017-05-26T00:52:58.255Z,81.6
2017-05-26T00:53:38.873Z,81.79
2017-05-26T00:54:19.490Z,81.51
2017-05-26T00:55:00.021Z,82.08
2017-05-26T00:55:40.593Z,81.99
2017-05-26T00:56:21.238Z,81.99
2017-05-26T00:57:01.752Z,82.18
2017-05-26T00:57:42.394Z,81.89
2017-05-26T00:58:23.085Z,82.18
2017-05-26T00:59:03.633Z,82.08
2017-05-26T00:59:44.224Z,82.18
2017-05-26T01:00:24.855Z,82.08
2017-05-26T01:01:05.378Z,82.08
2017-05-26T01:01:45.966Z,81.99
2017-05-26T01:02:26.625Z,82.08
2017-05-26T01:03:07.678Z,82.08
2017-05-26T01:03:48.339Z,81.79
2017-05-26T01:04:28.978Z,81.95
2017-05-26T01:05:09.644Z,82.56
2017-05-26T01:05:50.301Z,82.42
2017-05-26T01:06:30.966Z,82.42
2017-05-26T01:07:11.639Z,82.32
2017-05-26T01:07:52.241Z,82.52
2017-05-26T01:08:32.767Z,82.37
2017-05-26T01:09:13.403Z,82.37
2017-05-26T01:09:54.035Z,82.14
2017-05-26T01:10:34.712Z,82.46
2017-05-26T01:11:15.406Z,82.42
2017-05-26T01:11:55.937Z,82.42
2017-05-26T01:12:36.529Z,82.42
2017-05-26T01:13:17.154Z,82.23
2017-05-26T01:13:57.679Z,82.23
2017-05-26T01:14:38.273Z,82.23
2017-05-26T01:15:18.908Z,82.42
2017-05-26T01:15:59.420Z,82.32
2017-05-26T01:16:40.062Z,82.42
2017-05-26T01:17:20.690Z,82.81
2017-05-26T01:18:01.354Z,82.42
2017-05-26T01:18:41.976Z,82.61
2017-05-26T01:19:22.633Z,82.61
2017-05-26T01:20:03.302Z,82.61
2017-05-26T01:20:43.959Z,82.61
2017-05-26T01:21:24.611Z,82.9
2017-05-26T01:22:05.158Z,83
2017-05-26T01:22:45.794Z,83
2017-05-26T01:23:26.484Z,82.81
2017-05-26T01:24:07.096Z,82.9
2017-05-26T01:24:47.776Z,83.09
2017-05-26T01:25:28.441Z,83.28
2017-05-26T01:26:09.069Z,82.71
2017-05-26T01:26:49.739Z,82.9
2017-05-26T01:27:30.371Z,82.71
2017-05-26T01:28:11.138Z,82.81
2017-05-26T01:28:51.783Z,83
2017-05-26T01:29:32.462Z,82.81
2017-05-26T01:30:13.090Z,83
2017-05-26T01:30:53.756Z,82.9
2017-05-26T01:31:34.394Z,82.61
2017-05-26T01:32:15.039Z,82.71
2017-05-26T01:32:55.612Z,82.9
2017-05-26T01:33:36.297Z,82.81
2017-05-26T01:34:17.831Z,83
2017-05-26T01:34:58.510Z,82.71
2017-05-26T01:35:39.146Z,82.9
2017-05-26T01:36:19.762Z,82.9
2017-05-26T01:37:00.427Z,82.81
2017-05-26T01:37:41.110Z,82.9
2017-05-26T01:38:21.739Z,82.61
2017-05-26T01:39:02.414Z,82.61
2017-05-26T01:39:43.097Z,83.09
2017-05-26T01:40:23.698Z,83.09
2017-05-26T01:41:04.383Z,83
2017-05-26T01:41:45.010Z,83.09
2017-05-26T01:42:25.664Z,83.28
2017-05-26T01:43:06.316Z,83.09
2017-05-26T01:43:46.977Z,83.09
2017-05-26T01:44:27.648Z,83.09
2017-05-26T01:45:08.258Z,82.81
2017-05-26T01:45:48.953Z,83.18
2017-05-26T01:46:29.589Z,83.18
2017-05-26T01:47:10.282Z,82.9
2017-05-26T01:47:50.976Z,83.28
2017-05-26T01:48:31.514Z,83.09
2017-05-26T01:49:12.210Z,82.71
2017-05-26T01:49:52.797Z,82.9
2017-05-26T01:50:33.485Z,83.67
2017-05-26T01:51:14.025Z,82.71
2017-05-26T01:51:54.698Z,83.09
2017-05-26T01:52:35.375Z,83.09
2017-05-26T01:53:16.007Z,83.28
2017-05-26T01:53:56.646Z,83.18
2017-05-26T01:54:37.339Z,83.38
2017-05-26T01:55:17.963Z,83.38
2017-05-26T01:55:58.637Z,83.34
2017-05-26T01:56:39.297Z,83.28
2017-05-26T01:57:19.971Z,83.28
2017-05-26T01:58:00.661Z,83.28
2017-05-26T01:58:41.207Z,83.28
2017-05-26T01:59:22.177Z,83.05
2017-05-26T02:00:02.791Z,83.05
2017-05-26T02:00:43.477Z,83.05
2017-05-26T02:01:24.021Z,83.05
2017-05-26T02:02:04.720Z,83.14
2017-05-26T02:02:45.371Z,82.95
2017-05-26T02:03:26.026Z,83.05
2017-05-26T02:04:06.674Z,83.09
2017-05-26T02:04:47.329Z,83.43
2017-05-26T02:05:27.981Z,83.34
2017-05-26T02:06:08.644Z,83.43
2017-05-26T02:06:49.288Z,83.43
2017-05-26T02:07:30.002Z,83.53
2017-05-26T02:08:10.695Z,83.53
2017-05-26T02:08:51.230Z,83.53
2017-05-26T02:09:31.908Z,83.53
2017-05-26T02:10:12.581Z,83.53
2017-05-26T02:10:53.272Z,83.43
2017-05-26T02:11:33.823Z,83.34
2017-05-26T02:12:14.542Z,83.43
2017-05-26T02:12:55.233Z,83.14
2017-05-26T02:13:35.779Z,83.05
2017-05-26T02:14:16.465Z,83.34
2017-05-26T02:14:57.086Z,83.24
2017-05-26T02:15:37.641Z,83.14
2017-05-26T02:16:18.301Z,83.53
2017-05-26T02:16:58.944Z,83.34
2017-05-26T02:17:39.607Z,83.14
2017-05-26T02:18:20.249Z,83.24
2017-05-26T02:19:00.906Z,83.24
2017-05-26T02:19:41.562Z,83.24
2017-05-26T02:20:22.613Z,84
2017-05-26T02:21:03.268Z,84.1
2017-05-26T02:21:43.923Z,84
2017-05-26T02:22:24.577Z,84.2
2017-05-26T02:23:05.231Z,83.72
2017-05-26T02:23:45.881Z,83.72
2017-05-26T02:24:26.537Z,83.91
2017-05-26T02:25:07.184Z,83.72
2017-05-26T02:25:47.847Z,83.72
2017-05-26T02:26:28.493Z,83.72
2017-05-26T02:27:09.145Z,83.91
2017-05-26T02:27:49.804Z,83.81
2017-05-26T02:28:30.450Z,83.81
2017-05-26T02:29:11.110Z,83.81
2017-05-26T02:29:51.766Z,83.91
2017-05-26T02:30:32.422Z,84.1
2017-05-26T02:31:13.062Z,84
2017-05-26T02:31:53.619Z,83.91
2017-05-26T02:32:34.306Z,83.81
2017-05-26T02:33:14.954Z,84
2017-05-26T02:33:55.590Z,83.91
2017-05-26T02:34:36.279Z,84.1
2017-05-26T02:35:16.910Z,83.81
2017-05-26T02:35:57.597Z,84.2
2017-05-26T02:36:38.217Z,83.81
2017-05-26T02:37:18.858Z,83.81
2017-05-26T02:37:59.504Z,84
2017-05-26T02:38:40.172Z,83.81
2017-05-26T02:39:20.831Z,84
2017-05-26T02:40:01.488Z,84
2017-05-26T02:40:42.136Z,83.96
2017-05-26T02:41:22.773Z,84
2017-05-26T02:42:03.480Z,83.96
2017-05-26T02:42:44.177Z,84
2017-05-26T02:43:24.718Z,83.77
2017-05-26T02:44:05.392Z,83.87
2017-05-26T02:44:46.096Z,83.96
2017-05-26T02:45:26.797Z,83.62
2017-05-26T02:46:07.332Z,83.87
2017-05-26T02:46:48.000Z,83.91
2017-05-26T02:47:28.729Z,83.96
2017-05-26T02:48:09.346Z,84
2017-05-26T02:48:50.025Z,83.96
2017-05-26T02:49:30.699Z,83.96
2017-05-26T02:50:11.330Z,83.77
2017-05-26T02:50:51.964Z,83.67
2017-05-26T02:51:32.624Z,83.67
2017-05-26T02:52:13.277Z,84.34
2017-05-26T02:52:53.944Z,84.34
2017-05-26T02:53:34.597Z,84.25
2017-05-26T02:54:15.304Z,84.25
2017-05-26T02:54:55.953Z,84.44
2017-05-26T02:55:36.615Z,84.44
2017-05-26T02:56:17.287Z,84.44
2017-05-26T02:56:58.022Z,84.34
2017-05-26T02:57:38.719Z,84.63
2017-05-26T02:58:19.387Z,84.63
2017-05-26T02:58:59.922Z,84.53
2017-05-26T02:59:40.648Z,84.44
2017-05-26T03:00:21.349Z,84.44
2017-05-26T03:01:02.012Z,84.34
2017-05-26T03:01:42.520Z,84.16
2017-05-26T03:02:23.229Z,84.34
2017-05-26T03:03:03.870Z,84.44
2017-05-26T03:03:44.403Z,84.44
2017-05-26T03:04:25.086Z,84.44
2017-05-26T03:05:05.726Z,84.72
2017-05-26T03:05:46.247Z,84.34
2017-05-26T03:06:26.950Z,84.82
2017-05-26T03:07:07.575Z,84.63
2017-05-26T03:07:48.098Z,84.63
2017-05-26T03:08:28.803Z,84.53
2017-05-26T03:09:09.505Z,84.82
2017-05-26T03:09:50.189Z,85.01
2017-05-26T03:10:30.720Z,84.72
2017-05-26T03:11:11.418Z,84.44
2017-05-26T03:11:52.091Z,84.63
2017-05-26T03:12:32.739Z,84.53
2017-05-26T03:13:13.359Z,84.63
2017-05-26T03:13:54.055Z,84.63
2017-05-26T03:14:34.690Z,84.63
2017-05-26T03:15:15.319Z,84.53
2017-05-26T03:15:55.994Z,84.44
2017-05-26T03:16:36.647Z,84.16
2017-05-26T03:17:17.278Z,84.53
2017-05-26T03:17:57.978Z,84.53
2017-05-26T03:18:38.575Z,84.63
2017-05-26T03:19:19.114Z,84.44
2017-05-26T03:19:59.774Z,84.72
2017-05-26T03:20:40.502Z,84.25
2017-05-26T03:21:21.212Z,84.72
2017-05-26T03:22:01.747Z,84.82
2017-05-26T03:22:42.405Z,84.72
2017-05-26T03:23:23.071Z,84.82
2017-05-26T03:24:03.723Z,84.63
2017-05-26T03:24:44.409Z,84.92
2017-05-26T03:25:25.073Z,84.82
2017-05-26T03:26:05.749Z,84.25
2017-05-26T03:26:46.402Z,84.53
2017-05-26T03:27:27.059Z,84.82
2017-05-26T03:28:07.652Z,84.63
2017-05-26T03:28:48.176Z,84.72
2017-05-26T03:29:28.789Z,84.72
2017-05-26T03:30:09.364Z,84.82
2017-05-26T03:30:49.962Z,84.82
2017-05-26T03:31:30.482Z,84.82
2017-05-26T03:32:11.082Z,84.82
2017-05-26T03:32:51.723Z,84.44
2017-05-26T03:33:32.294Z,84.63
2017-05-26T03:34:12.969Z,84.82
2017-05-26T03:34:53.586Z,84.72
2017-05-26T03:35:34.237Z,84.53
2017-05-26T03:36:14.891Z,84.63
2017-05-26T03:36:55.567Z,84.82
2017-05-26T03:37:36.088Z,84.72
2017-05-26T03:38:16.752Z,84.72
2017-05-26T03:38:57.393Z,84.63
2017-05-26T03:39:38.047Z,84.63
2017-05-26T03:40:18.759Z,84.82
2017-05-26T03:40:59.359Z,84.92
2017-05-26T03:41:40.026Z,84.63
2017-05-26T03:42:20.634Z,84.72
2017-05-26T03:43:01.217Z,84.82
2017-05-26T03:43:41.760Z,84.92
2017-05-26T03:44:22.434Z,84.63
2017-05-26T03:45:03.014Z,84.63
2017-05-26T03:45:43.604Z,84.63
2017-05-26T03:46:24.142Z,84.53
2017-05-26T03:47:04.750Z,84.44
2017-05-26T03:47:45.327Z,84.53
2017-05-26T03:48:25.917Z,84.63
2017-05-26T03:49:06.556Z,84.63
2017-05-26T03:49:47.246Z,84.63
2017-05-26T03:50:27.902Z,84.63
2017-05-26T03:51:08.530Z,84.63
2017-05-26T03:51:49.053Z,84.63
2017-05-26T03:52:29.640Z,84.53
2017-05-26T03:53:10.299Z,84.53
2017-05-26T03:53:50.958Z,84.63
2017-05-26T03:54:31.618Z,84.63
2017-05-26T03:55:12.293Z,84.44
2017-05-26T03:55:52.931Z,84.63
2017-05-26T03:56:33.585Z,84.44
2017-05-26T03:57:14.243Z,84.25
2017-05-26T03:57:54.909Z,84.44
2017-05-26T03:58:35.544Z,84.25
2017-05-26T03:59:16.235Z,84.82
2017-05-26T03:59:56.838Z,84.92
2017-05-26T04:00:37.507Z,84.25
2017-05-26T04:01:18.138Z,84.82
2017-05-26T04:01:58.823Z,84.25
2017-05-26T04:02:39.461Z,84.82
2017-05-26T04:03:20.141Z,84.72
2017-05-26T04:04:00.772Z,84.82
2017-05-26T04:04:41.434Z,84.82
2017-05-26T04:05:22.076Z,84.82
2017-05-26T04:06:02.733Z,84.92
2017-05-26T04:06:43.378Z,84.25
2017-05-26T04:07:24.048Z,84.82
2017-05-26T04:08:04.724Z,84.72
2017-05-26T04:08:45.362Z,84.63
2017-05-26T04:09:26.034Z,84.63
2017-05-26T04:10:06.629Z,84.72
2017-05-26T04:10:47.297Z,84.63
2017-05-26T04:11:27.925Z,84.67
2017-05-26T04:12:08.569Z,84.77
2017-05-26T04:12:49.589Z,85.05
2017-05-26T04:13:30.284Z,84.96
2017-05-26T04:14:10.800Z,84.86
2017-05-26T04:14:51.393Z,84.86
2017-05-26T04:15:31.980Z,84.67
2017-05-26T04:16:12.575Z,84.29
2017-05-26T04:16:53.124Z,84.67
2017-05-26T04:17:33.742Z,84.67
2017-05-26T04:18:14.375Z,84.67
2017-05-26T04:18:55.009Z,84.67
2017-05-26T04:19:35.652Z,84.58
2017-05-26T04:20:16.300Z,84.67
2017-05-26T04:20:56.979Z,84.58
2017-05-26T04:21:37.640Z,84.39
2017-05-26T04:22:18.279Z,84.86
2017-05-26T04:22:58.933Z,85.05
2017-05-26T04:23:39.587Z,84.67
2017-05-26T04:24:20.239Z,84.77
2017-05-26T04:25:00.891Z,84.48
2017-05-26T04:25:41.540Z,84.77
2017-05-26T04:26:22.196Z,84.48
2017-05-26T04:27:02.852Z,84.86
2017-05-26T04:27:43.499Z,84.48
2017-05-26T04:28:24.157Z,84.2
2017-05-26T04:29:04.808Z,84.39
2017-05-26T04:29:45.460Z,84.39
2017-05-26T04:30:26.121Z,84.39
2017-05-26T04:31:06.765Z,84.77
2017-05-26T04:31:47.457Z,84.77
2017-05-26T04:32:28.053Z,84.77
2017-05-26T04:33:08.712Z,84.67
2017-05-26T04:33:49.356Z,85.05
2017-05-26T04:34:29.982Z,84.67
2017-05-26T04:35:10.543Z,84.77
2017-05-26T04:35:51.109Z,84.67
2017-05-26T04:36:31.767Z,84.67
2017-05-26T04:37:12.440Z,84.52
2017-05-26T04:37:53.163Z,84.86
2017-05-26T04:38:33.726Z,84.86
2017-05-26T04:39:14.272Z,84.58
2017-05-26T04:39:54.927Z,84.67
2017-05-26T04:40:35.515Z,84.86
2017-05-26T04:41:16.105Z,84.91
2017-05-26T04:41:56.621Z,84.91
2017-05-26T04:42:37.232Z,84.81
2017-05-26T04:43:17.899Z,84.81
2017-05-26T04:43:58.604Z,84.52
2017-05-26T04:44:39.295Z,84.72
2017-05-26T04:45:19.950Z,84.81
2017-05-26T04:46:00.576Z,85
2017-05-26T04:46:41.216Z,84.91
2017-05-26T04:47:21.791Z,84.52
2017-05-26T04:48:02.457Z,84.72
2017-05-26T04:48:43.111Z,84.33
2017-05-26T04:49:23.782Z,84.43
2017-05-26T04:50:04.448Z,84.33
2017-05-26T04:50:45.059Z,84.33
2017-05-26T04:51:25.606Z,84.33
2017-05-26T04:52:06.171Z,84.62
2017-05-26T04:52:46.856Z,83.86
2017-05-26T04:53:27.446Z,84.23
2017-05-26T04:54:07.967Z,84.43
2017-05-26T04:54:48.598Z,84.14
2017-05-26T04:55:29.164Z,84.56
2017-05-26T04:56:09.751Z,84.66
2017-05-26T04:56:50.300Z,84.85
2017-05-26T04:57:30.874Z,84.66
2017-05-26T04:58:11.593Z,84.76
2017-05-26T04:58:52.188Z,84.56
2017-05-26T04:59:32.844Z,83.8
2017-05-26T05:00:13.485Z,83.8
2017-05-26T05:00:54.147Z,83.9
2017-05-26T05:01:34.789Z,84.09
2017-05-26T05:02:15.467Z,84.28
2017-05-26T05:02:56.037Z,84.28
2017-05-26T05:03:36.631Z,84.38
2017-05-26T05:04:17.145Z,84.28
2017-05-26T05:04:57.766Z,83.9
2017-05-26T05:05:38.373Z,83.9
2017-05-26T05:06:19.061Z,83.9
2017-05-26T05:07:01.225Z,84.19
2017-05-26T05:07:41.791Z,83.8
2017-05-26T05:08:22.489Z,84.03
2017-05-26T05:09:03.108Z,83.84
2017-05-26T05:09:43.763Z,83.94
2017-05-26T05:10:24.433Z,84.03
2017-05-26T05:11:05.066Z,84.03
2017-05-26T05:11:45.727Z,83.84
2017-05-26T05:12:26.364Z,83.84
2017-05-26T05:13:06.997Z,84.13
2017-05-26T05:13:47.520Z,84.23
2017-05-26T05:14:28.241Z,84.13
2017-05-26T05:15:08.866Z,84.23
2017-05-26T05:15:49.467Z,84.03
2017-05-26T05:16:30.070Z,83.94
2017-05-26T05:17:10.726Z,83.27
2017-05-26T05:17:51.270Z,83.17
2017-05-26T05:18:32.913Z,83.37
2017-05-26T05:19:13.575Z,83.27
2017-05-26T05:19:56.205Z,83.17
2017-05-26T05:20:36.737Z,83.56
2017-05-26T05:21:18.360Z,83.65
2017-05-26T05:21:58.950Z,83.65
2017-05-26T05:22:39.534Z,83.65
2017-05-26T05:23:20.187Z,83.65
2017-05-26T05:24:00.834Z,83.65
2017-05-26T05:24:41.394Z,83.56
2017-05-26T05:25:22.033Z,83.27
2017-05-26T05:26:02.687Z,83.37
2017-05-26T05:26:43.341Z,83.12
2017-05-26T05:27:23.886Z,83.12
2017-05-26T05:28:04.460Z,83.4
2017-05-26T05:28:45.054Z,83.4
2017-05-26T05:29:25.645Z,83.5
2017-05-26T05:30:06.160Z,83.4
2017-05-26T05:30:46.784Z,83.31
2017-05-26T05:31:27.358Z,83.22
2017-05-26T05:32:07.956Z,83.22
2017-05-26T05:32:48.642Z,83.03
2017-05-26T05:33:29.265Z,83.03
2017-05-26T05:34:09.914Z,82.74
2017-05-26T05:34:50.573Z,83.4
2017-05-26T05:35:31.226Z,83.31
2017-05-26T05:36:11.872Z,83.31
2017-05-26T05:36:52.524Z,83.4
2017-05-26T05:37:33.182Z,83.4
2017-05-26T05:38:13.841Z,83.12
2017-05-26T05:38:54.504Z,83.03
2017-05-26T05:39:35.157Z,83.12
2017-05-26T05:40:15.819Z,83.36
2017-05-26T05:40:56.456Z,82.78
2017-05-26T05:41:37.098Z,82.87
2017-05-26T05:42:17.637Z,82.78
2017-05-26T05:42:58.209Z,82.87
2017-05-26T05:43:38.776Z,83.16
2017-05-26T05:44:19.392Z,82.78
2017-05-26T05:44:59.940Z,82.97
2017-05-26T05:45:40.507Z,83.06
2017-05-26T05:46:21.087Z,83.06
2017-05-26T05:47:01.678Z,82.97
2017-05-26T05:47:42.210Z,83.06
2017-05-26T05:48:22.791Z,83.06
2017-05-26T05:49:03.426Z,83.16
2017-05-26T05:49:44.374Z,82.97
2017-05-26T05:50:24.955Z,82.78
2017-05-26T05:51:05.595Z,82.78
2017-05-26T05:51:46.153Z,82.68
2017-05-26T05:52:26.728Z,82.78
2017-05-26T05:53:07.335Z,82.97
2017-05-26T05:53:47.996Z,82.4
2017-05-26T05:54:28.529Z,82.78
2017-05-26T05:55:09.129Z,82.68
2017-05-26T05:55:49.803Z,82.68
2017-05-26T05:56:30.508Z,82.78
2017-05-26T05:57:11.026Z,82.68
2017-05-26T05:57:51.565Z,82.59
2017-05-26T05:58:32.310Z,82.59
2017-05-26T05:59:12.981Z,82.59
2017-05-26T05:59:53.739Z,82.59
2017-05-26T06:00:34.479Z,82.53
2017-05-26T06:01:15.027Z,82.63
2017-05-26T06:01:55.684Z,82.63
2017-05-26T06:02:36.325Z,82.59
2017-05-26T06:03:17.041Z,82.63
2017-05-26T06:03:57.695Z,82.49
2017-05-26T06:04:38.378Z,82.59
2017-05-26T06:05:19.096Z,82.63
2017-05-26T06:05:59.803Z,82.82
2017-05-26T06:06:40.526Z,82.24
2017-05-26T06:07:21.268Z,82.06
2017-05-26T06:08:01.935Z,82.15
2017-05-26T06:08:42.584Z,82.34
2017-05-26T06:09:23.226Z,82.24
2017-05-26T06:10:03.901Z,82.15
2017-05-26T06:10:44.667Z,82.15
2017-05-26T06:11:25.381Z,81.77
2017-05-26T06:12:06.054Z,82.24
2017-05-26T06:12:46.692Z,82.24
2017-05-26T06:13:27.369Z,82.15
2017-05-26T06:14:08.123Z,82.15
2017-05-26T06:14:48.777Z,81.96
2017-05-26T06:15:29.518Z,81.77
2017-05-26T06:16:10.171Z,81.67
2017-05-26T06:16:50.807Z,81.77
2017-05-26T06:17:31.481Z,81.67
2017-05-26T06:18:12.171Z,82.06
2017-05-26T06:18:52.867Z,82.06
2017-05-26T06:19:33.392Z,82.15
2017-05-26T06:20:14.085Z,82.06
2017-05-26T06:20:54.681Z,81.48
2017-05-26T06:21:35.364Z,81.57
2017-05-26T06:22:15.920Z,81.57
2017-05-26T06:22:56.592Z,81.57
2017-05-26T06:23:37.184Z,81.38
2017-05-26T06:24:17.776Z,81.77
2017-05-26T06:24:58.316Z,81.38
2017-05-26T06:25:38.835Z,81.38
2017-05-26T06:26:19.384Z,81.48
2017-05-26T06:27:00.103Z,81.52
2017-05-26T06:27:40.646Z,81.33
2017-05-26T06:28:21.219Z,81.43
2017-05-26T06:29:01.863Z,81.23
2017-05-26T06:29:42.566Z,81.62
2017-05-26T06:30:23.235Z,81.04
2017-05-26T06:31:03.828Z,81.33
2017-05-26T06:31:44.375Z,81.62
2017-05-26T06:32:24.963Z,81.33
2017-05-26T06:33:05.584Z,81.43
2017-05-26T06:33:46.219Z,81.52
2017-05-26T06:34:26.820Z,81.62
2017-05-26T06:35:07.427Z,81.52
2017-05-26T06:35:47.997Z,81.62
2017-05-26T06:36:28.535Z,81.33
2017-05-26T06:37:09.213Z,81.13
2017-05-26T06:37:50.789Z,80.94
2017-05-26T06:38:31.399Z,80.85
2017-05-26T06:39:11.941Z,80.85
2017-05-26T06:39:52.524Z,80.94
2017-05-26T06:40:33.091Z,80.85
2017-05-26T06:41:13.699Z,81.13
2017-05-26T06:41:54.453Z,80.94
2017-05-26T06:42:35.112Z,80.85
2017-05-26T06:43:15.717Z,81.04
2017-05-26T06:43:56.320Z,80.94
2017-05-26T06:44:36.857Z,80.94
2017-05-26T06:45:17.427Z,81.13
2017-05-26T06:45:57.992Z,80.94
2017-05-26T06:46:38.653Z,81.13
2017-05-26T06:47:19.277Z,80.94
2017-05-26T06:47:59.912Z,81.13
2017-05-26T06:48:40.439Z,81.23
2017-05-26T06:49:21.035Z,81.13
2017-05-26T06:50:01.666Z,81.13
2017-05-26T06:50:42.214Z,81.33
2017-05-26T06:51:22.789Z,80.94
2017-05-26T06:52:03.441Z,80.66
2017-05-26T06:52:43.994Z,80.66
2017-05-26T06:53:24.640Z,81.04
2017-05-26T06:54:05.291Z,80.66
2017-05-26T06:54:45.881Z,80.76
2017-05-26T06:55:26.597Z,80.85
2017-05-26T06:56:07.239Z,80.85
2017-05-26T06:56:47.758Z,80.76
2017-05-26T06:57:28.369Z,81.04
2017-05-26T06:58:09.003Z,80.94
2017-05-26T06:58:49.579Z,80.79
2017-05-26T06:59:30.210Z,80.79
2017-05-26T07:00:10.818Z,80.79
2017-05-26T07:00:51.425Z,80.79
2017-05-26T07:01:32.104Z,80.7
2017-05-26T07:02:12.743Z,80.7
2017-05-26T07:02:53.375Z,80.79
2017-05-26T07:03:34.067Z,80.7
2017-05-26T07:04:14.692Z,80.41
2017-05-26T07:04:55.297Z,80.51
2017-05-26T07:05:35.890Z,80.41
2017-05-26T07:06:16.405Z,80.41
2017-05-26T07:06:57.010Z,80.12
2017-05-26T07:07:37.683Z,80.41
2017-05-26T07:08:18.284Z,80.12
2017-05-26T07:08:58.813Z,80.41
2017-05-26T07:09:39.397Z,80.51
2017-05-26T07:10:20.096Z,80.41
2017-05-26T07:11:00.556Z,80.32
2017-05-26T07:11:41.158Z,80.51
2017-05-26T07:12:21.794Z,80.32
2017-05-26T07:13:02.307Z,80.32
2017-05-26T07:13:42.916Z,79.93
2017-05-26T07:14:23.508Z,80.03
2017-05-26T07:15:04.113Z,80.03
2017-05-26T07:15:44.687Z,79.93
2017-05-26T07:16:25.342Z,80.22
2017-05-26T07:17:06.019Z,80.22
2017-05-26T07:17:46.609Z,79.93
2017-05-26T07:18:27.271Z,80.32
2017-05-26T07:19:08.006Z,80.22
2017-05-26T07:19:48.664Z,80.22
2017-05-26T07:20:29.380Z,79.55
2017-05-26T07:21:10.017Z,79.64
2017-05-26T07:21:50.669Z,79.64
2017-05-26T07:22:31.325Z,79.68
2017-05-26T07:23:11.852Z,79.83
2017-05-26T07:23:52.553Z,79.64
2017-05-26T07:24:33.326Z,79.78
2017-05-26T07:25:14.033Z,79.39
2017-05-26T07:25:54.589Z,79.59
2017-05-26T07:26:35.262Z,79.11
2017-05-26T07:27:15.954Z,79.39
2017-05-26T07:27:56.644Z,78.92
2017-05-26T07:28:37.203Z,78.82
2017-05-26T07:29:17.871Z,79.01
2017-05-26T07:29:58.571Z,79.21
2017-05-26T07:30:39.257Z,79.39
2017-05-26T07:31:19.790Z,78.92
2017-05-26T07:32:00.493Z,79.01
2017-05-26T07:32:41.176Z,79.01
2017-05-26T07:33:21.873Z,79.01
2017-05-26T07:34:02.373Z,79.21
2017-05-26T07:34:43.016Z,79.11
2017-05-26T07:35:23.710Z,79.21
2017-05-26T07:36:04.375Z,78.72
2017-05-26T07:36:44.956Z,78.25
2017-05-26T07:37:25.600Z,78.63
2017-05-26T07:38:06.443Z,78.63
2017-05-26T07:38:47.510Z,78.72
2017-05-26T07:39:28.050Z,78.53
2017-05-26T07:40:08.728Z,78.34
2017-05-26T07:40:49.422Z,78.53
2017-05-26T07:41:30.112Z,78.34
2017-05-26T07:42:11.934Z,78.25
2017-05-26T07:42:52.624Z,78.72
2017-05-26T07:43:33.411Z,78.44
2017-05-26T07:44:14.021Z,78.77
2017-05-26T07:44:59.632Z,78.67
2017-05-26T07:45:41.299Z,78.38
2017-05-26T07:46:21.848Z,78.44
2017-05-26T07:47:02.528Z,78.34
2017-05-26T07:47:43.156Z,78.77
2017-05-26T07:48:23.682Z,78.09
2017-05-26T07:49:04.817Z,78.19
2017-05-26T07:49:45.447Z,78
2017-05-26T07:50:26.102Z,77.61
2017-05-26T07:51:06.802Z,77.8
2017-05-26T07:51:47.513Z,77.9
2017-05-26T07:52:28.182Z,77.42
2017-05-26T07:53:08.884Z,77.23
2017-05-26T07:53:49.549Z,77.04
2017-05-26T07:54:30.081Z,77.04
2017-05-26T07:55:10.772Z,77.23
2017-05-26T07:55:51.478Z,77.04
2017-05-26T07:56:32.196Z,76.75
2017-05-26T07:57:12.783Z,77.04
2017-05-26T07:57:53.499Z,77.04
2017-05-26T07:58:34.121Z,76.84
2017-05-26T07:59:14.675Z,76.84
2017-05-26T07:59:55.338Z,77.04
2017-05-26T08:00:35.974Z,76.56
2017-05-26T08:01:16.485Z,76.69
2017-05-26T08:01:57.091Z,76.46
2017-05-26T08:02:37.734Z,76.88
2017-05-26T08:03:18.277Z,76.59
2017-05-26T08:03:58.943Z,76.5
2017-05-26T08:04:39.659Z,76.21
2017-05-26T08:05:20.335Z,76.31
2017-05-26T08:06:00.869Z,76.12
2017-05-26T08:06:41.582Z,76.31
2017-05-26T08:07:22.272Z,76.31
2017-05-26T08:08:02.956Z,76.4
2017-05-26T08:08:43.514Z,76.12
2017-05-26T08:09:24.180Z,76.12
2017-05-26T08:10:04.831Z,76.21
2017-05-26T08:10:45.499Z,76.12
2017-05-26T08:11:26.156Z,75.73
2017-05-26T08:12:06.794Z,75.45
2017-05-26T08:12:47.444Z,75.63
2017-05-26T08:13:28.097Z,75.73
2017-05-26T08:14:08.763Z,75.82
2017-05-26T08:14:49.507Z,75.15
2017-05-26T08:15:30.256Z,75.25
2017-05-26T08:16:12.019Z,75.25
2017-05-26T08:16:52.765Z,75.2
2017-05-26T08:17:33.579Z,75.06
2017-05-26T08:18:14.198Z,75.38
2017-05-26T08:18:55.242Z,75.35
2017-05-26T08:19:35.931Z,75
2017-05-26T08:20:16.576Z,75.2
2017-05-26T08:20:58.281Z,74.9
2017-05-26T08:21:39.922Z,74.81
2017-05-26T08:22:20.554Z,74.71
2017-05-26T08:23:01.241Z,75
2017-05-26T08:23:41.876Z,74.9
2017-05-26T08:24:22.550Z,74.81
2017-05-26T08:25:03.179Z,74.71
2017-05-26T08:25:43.843Z,75
2017-05-26T08:26:24.536Z,74.9
2017-05-26T08:27:05.151Z,75
2017-05-26T08:27:45.824Z,75.1
2017-05-26T08:28:26.430Z,74.9
2017-05-26T08:29:06.964Z,74.43
2017-05-26T08:29:47.670Z,74.43
2017-05-26T08:30:28.350Z,74.43
2017-05-26T08:31:08.835Z,74.71
2017-05-26T08:31:49.514Z,74.43
2017-05-26T08:32:31.488Z,74.43
2017-05-26T08:33:12.280Z,74.55
2017-05-26T08:33:52.891Z,74.37
2017-05-26T08:34:33.538Z,74.65
2017-05-26T08:35:14.187Z,74.23
2017-05-26T08:35:54.846Z,74.08
2017-05-26T08:36:35.499Z,74.08
2017-05-26T08:37:16.193Z,73.5
2017-05-26T08:37:56.908Z,73.88
2017-05-26T08:38:37.583Z,73.88
2017-05-26T08:39:18.220Z,73.79
2017-05-26T08:39:58.863Z,73.98
2017-05-26T08:40:39.518Z,74.08
2017-05-26T08:41:20.175Z,73.69
2017-05-26T08:42:00.840Z,73.79
2017-05-26T08:42:41.509Z,73.5
2017-05-26T08:43:22.241Z,73.41
2017-05-26T08:44:03.011Z,73.21
2017-05-26T08:44:43.661Z,73.21
2017-05-26T08:45:24.699Z,72.92
2017-05-26T08:46:05.376Z,73.21